sensor_id;sensor_type;location;lat;lon;timestamp;P1;durP1;ratioP1;P2;durP2;ratioP2
65759;SDS011;52496;51.082;5.066;2023-08-31T00:02:27;2.95;;;2.13;;
65759;SDS011;52496;51.082;5.066;2023-08-31T00:04:57;3.42;;;2.08;;
65759;SDS011;52496;51.082;5.066;2023-08-31T00:07:28;4.75;;;2.35;;
65759;SDS011;52496;51.082;5.066;2023-08-31T00:09:59;7.22;;;2.70;;
65759;SDS011;52496;51.082;5.066;2023-08-31T00:12:30;4.18;;;2.17;;
65759;SDS011;52496;51.082;5.066;2023-08-31T00:15:00;3.83;;;2.10;;
65759;SDS011;52496;51.082;5.066;2023-08-31T00:17:31;3.63;;;2.08;;
65759;SDS011;52496;51.082;5.066;2023-08-31T00:20:01;3.08;;;1.80;;
65759;SDS011;52496;51.082;5.066;2023-08-31T00:22:36;6.50;;;2.25;;
65759;SDS011;52496;51.082;5.066;2023-08-31T00:25:06;4.32;;;2.65;;
65759;SDS011;52496;51.082;5.066;2023-08-31T00:27:38;5.40;;;1.98;;
65759;SDS011;52496;51.082;5.066;2023-08-31T00:30:10;7.47;;;2.45;;
65759;SDS011;52496;51.082;5.066;2023-08-31T00:32:44;2.92;;;2.03;;
65759;SDS011;52496;51.082;5.066;2023-08-31T00:35:17;4.32;;;2.10;;
65759;SDS011;52496;51.082;5.066;2023-08-31T00:37:49;3.75;;;2.38;;
65759;SDS011;52496;51.082;5.066;2023-08-31T00:40:19;3.53;;;2.17;;
65759;SDS011;52496;51.082;5.066;2023-08-31T00:42:50;4.20;;;2.22;;
65759;SDS011;52496;51.082;5.066;2023-08-31T00:45:21;2.75;;;1.92;;
65759;SDS011;52496;51.082;5.066;2023-08-31T00:47:53;4.97;;;2.08;;
65759;SDS011;52496;51.082;5.066;2023-08-31T00:50:24;4.82;;;2.30;;
65759;SDS011;52496;51.082;5.066;2023-08-31T00:52:55;5.85;;;2.60;;
65759;SDS011;52496;51.082;5.066;2023-08-31T00:55:26;6.97;;;2.00;;
65759;SDS011;52496;51.082;5.066;2023-08-31T00:57:56;3.30;;;2.17;;
65759;SDS011;52496;51.082;5.066;2023-08-31T01:00:50;2.67;;;1.58;;
65759;SDS011;52496;51.082;5.066;2023-08-31T01:06:18;3.72;;;1.95;;
65759;SDS011;52496;51.082;5.066;2023-08-31T01:09:00;3.67;;;2.10;;
65759;SDS011;52496;51.082;5.066;2023-08-31T01:14:23;4.90;;;2.50;;
65759;SDS011;52496;51.082;5.066;2023-08-31T01:16:55;5.22;;;2.60;;
65759;SDS011;52496;51.082;5.066;2023-08-31T01:22:38;5.90;;;2.08;;
65759;SDS011;52496;51.082;5.066;2023-08-31T01:25:13;4.25;;;2.15;;
65759;SDS011;52496;51.082;5.066;2023-08-31T01:27:43;4.28;;;2.25;;
65759;SDS011;52496;51.082;5.066;2023-08-31T01:30:14;4.63;;;2.22;;
65759;SDS011;52496;51.082;5.066;2023-08-31T01:32:44;5.70;;;2.67;;
65759;SDS011;52496;51.082;5.066;2023-08-31T01:35:18;4.65;;;2.10;;
65759;SDS011;52496;51.082;5.066;2023-08-31T01:37:58;5.43;;;2.40;;
65759;SDS011;52496;51.082;5.066;2023-08-31T01:40:38;5.88;;;2.30;;
65759;SDS011;52496;51.082;5.066;2023-08-31T01:43:14;4.38;;;2.22;;
65759;SDS011;52496;51.082;5.066;2023-08-31T01:45:47;3.90;;;2.35;;
65759;SDS011;52496;51.082;5.066;2023-08-31T01:48:18;8.70;;;2.33;;
65759;SDS011;52496;51.082;5.066;2023-08-31T01:50:49;8.48;;;2.65;;
65759;SDS011;52496;51.082;5.066;2023-08-31T01:53:19;4.53;;;2.50;;
65759;SDS011;52496;51.082;5.066;2023-08-31T01:55:50;4.28;;;2.15;;
65759;SDS011;52496;51.082;5.066;2023-08-31T01:58:20;8.88;;;2.50;;
65759;SDS011;52496;51.082;5.066;2023-08-31T02:00:51;5.10;;;2.38;;
65759;SDS011;52496;51.082;5.066;2023-08-31T02:03:22;4.90;;;2.65;;
65759;SDS011;52496;51.082;5.066;2023-08-31T02:05:52;5.13;;;2.80;;
65759;SDS011;52496;51.082;5.066;2023-08-31T02:08:23;5.30;;;2.47;;
65759;SDS011;52496;51.082;5.066;2023-08-31T02:10:53;5.40;;;2.53;;
65759;SDS011;52496;51.082;5.066;2023-08-31T02:13:24;4.35;;;2.63;;
65759;SDS011;52496;51.082;5.066;2023-08-31T02:15:54;7.15;;;3.33;;
65759;SDS011;52496;51.082;5.066;2023-08-31T02:18:25;5.68;;;2.85;;
65759;SDS011;52496;51.082;5.066;2023-08-31T02:20:55;5.60;;;2.78;;
65759;SDS011;52496;51.082;5.066;2023-08-31T02:23:27;4.25;;;2.42;;
65759;SDS011;52496;51.082;5.066;2023-08-31T02:25:57;3.88;;;2.20;;
65759;SDS011;52496;51.082;5.066;2023-08-31T02:28:28;4.90;;;2.17;;
65759;SDS011;52496;51.082;5.066;2023-08-31T02:30:59;5.72;;;2.88;;
65759;SDS011;52496;51.082;5.066;2023-08-31T02:33:31;6.72;;;3.20;;
65759;SDS011;52496;51.082;5.066;2023-08-31T02:36:01;7.47;;;2.58;;
65759;SDS011;52496;51.082;5.066;2023-08-31T02:38:32;4.95;;;2.55;;
65759;SDS011;52496;51.082;5.066;2023-08-31T02:41:02;4.70;;;2.70;;
65759;SDS011;52496;51.082;5.066;2023-08-31T02:43:33;5.70;;;2.50;;
65759;SDS011;52496;51.082;5.066;2023-08-31T02:46:03;4.38;;;2.35;;
65759;SDS011;52496;51.082;5.066;2023-08-31T02:48:34;4.03;;;2.15;;
65759;SDS011;52496;51.082;5.066;2023-08-31T02:51:04;4.97;;;2.60;;
65759;SDS011;52496;51.082;5.066;2023-08-31T02:53:35;6.07;;;2.65;;
65759;SDS011;52496;51.082;5.066;2023-08-31T02:56:06;5.25;;;2.65;;
65759;SDS011;52496;51.082;5.066;2023-08-31T02:58:36;7.03;;;2.65;;
65759;SDS011;52496;51.082;5.066;2023-08-31T03:01:10;4.10;;;2.38;;
65759;SDS011;52496;51.082;5.066;2023-08-31T03:03:42;7.00;;;2.47;;
65759;SDS011;52496;51.082;5.066;2023-08-31T03:06:15;5.22;;;2.50;;
65759;SDS011;52496;51.082;5.066;2023-08-31T03:08:46;6.53;;;3.88;;
65759;SDS011;52496;51.082;5.066;2023-08-31T03:11:16;4.78;;;2.08;;
65759;SDS011;52496;51.082;5.066;2023-08-31T03:13:46;5.45;;;2.72;;
65759;SDS011;52496;51.082;5.066;2023-08-31T03:16:17;8.18;;;3.83;;
65759;SDS011;52496;51.082;5.066;2023-08-31T03:18:47;7.10;;;3.55;;
65759;SDS011;52496;51.082;5.066;2023-08-31T03:21:18;6.65;;;2.97;;
65759;SDS011;52496;51.082;5.066;2023-08-31T03:23:50;6.25;;;2.50;;
65759;SDS011;52496;51.082;5.066;2023-08-31T03:26:20;7.68;;;2.97;;
65759;SDS011;52496;51.082;5.066;2023-08-31T03:28:51;6.70;;;2.50;;
65759;SDS011;52496;51.082;5.066;2023-08-31T03:31:21;5.13;;;2.65;;
65759;SDS011;52496;51.082;5.066;2023-08-31T03:33:52;7.25;;;2.58;;
65759;SDS011;52496;51.082;5.066;2023-08-31T03:36:22;5.18;;;2.85;;
65759;SDS011;52496;51.082;5.066;2023-08-31T03:38:54;4.43;;;2.70;;
65759;SDS011;52496;51.082;5.066;2023-08-31T03:41:24;5.43;;;2.92;;
65759;SDS011;52496;51.082;5.066;2023-08-31T03:43:55;4.95;;;2.70;;
65759;SDS011;52496;51.082;5.066;2023-08-31T03:46:25;5.00;;;2.70;;
65759;SDS011;52496;51.082;5.066;2023-08-31T03:48:56;4.45;;;2.78;;
65759;SDS011;52496;51.082;5.066;2023-08-31T03:51:27;4.72;;;2.40;;
65759;SDS011;52496;51.082;5.066;2023-08-31T03:53:57;5.13;;;2.67;;
65759;SDS011;52496;51.082;5.066;2023-08-31T03:56:28;6.43;;;2.65;;
65759;SDS011;52496;51.082;5.066;2023-08-31T03:58:58;5.22;;;2.80;;
65759;SDS011;52496;51.082;5.066;2023-08-31T04:01:28;7.80;;;3.08;;
65759;SDS011;52496;51.082;5.066;2023-08-31T04:03:59;5.32;;;2.50;;
65759;SDS011;52496;51.082;5.066;2023-08-31T04:06:30;6.50;;;3.60;;
65759;SDS011;52496;51.082;5.066;2023-08-31T04:09:00;4.40;;;2.60;;
65759;SDS011;52496;51.082;5.066;2023-08-31T04:11:31;4.90;;;2.95;;
65759;SDS011;52496;51.082;5.066;2023-08-31T04:14:01;6.65;;;3.00;;
65759;SDS011;52496;51.082;5.066;2023-08-31T04:16:32;5.75;;;3.50;;
65759;SDS011;52496;51.082;5.066;2023-08-31T04:19:02;6.20;;;3.38;;
65759;SDS011;52496;51.082;5.066;2023-08-31T04:21:34;7.15;;;3.33;;
65759;SDS011;52496;51.082;5.066;2023-08-31T04:24:04;6.47;;;3.42;;
65759;SDS011;52496;51.082;5.066;2023-08-31T04:26:35;5.20;;;2.92;;
65759;SDS011;52496;51.082;5.066;2023-08-31T04:29:06;7.53;;;3.13;;
65759;SDS011;52496;51.082;5.066;2023-08-31T04:31:36;8.50;;;2.97;;
65759;SDS011;52496;51.082;5.066;2023-08-31T04:34:08;6.00;;;3.60;;
65759;SDS011;52496;51.082;5.066;2023-08-31T04:36:38;6.22;;;3.20;;
65759;SDS011;52496;51.082;5.066;2023-08-31T04:39:09;8.00;;;3.38;;
65759;SDS011;52496;51.082;5.066;2023-08-31T04:41:39;6.05;;;3.15;;
65759;SDS011;52496;51.082;5.066;2023-08-31T04:44:10;5.50;;;3.17;;
65759;SDS011;52496;51.082;5.066;2023-08-31T04:46:41;5.22;;;2.75;;
65759;SDS011;52496;51.082;5.066;2023-08-31T04:49:11;5.20;;;2.70;;
65759;SDS011;52496;51.082;5.066;2023-08-31T04:51:43;5.85;;;2.78;;
65759;SDS011;52496;51.082;5.066;2023-08-31T04:54:14;9.27;;;3.63;;
65759;SDS011;52496;51.082;5.066;2023-08-31T04:56:45;6.50;;;3.17;;
65759;SDS011;52496;51.082;5.066;2023-08-31T04:59:15;6.07;;;2.67;;
65759;SDS011;52496;51.082;5.066;2023-08-31T05:01:46;6.97;;;3.25;;
65759;SDS011;52496;51.082;5.066;2023-08-31T05:04:16;6.15;;;3.20;;
65759;SDS011;52496;51.082;5.066;2023-08-31T05:06:47;6.32;;;3.35;;
65759;SDS011;52496;51.082;5.066;2023-08-31T05:09:17;7.75;;;2.92;;
65759;SDS011;52496;51.082;5.066;2023-08-31T05:11:49;6.95;;;3.60;;
65759;SDS011;52496;51.082;5.066;2023-08-31T05:14:19;5.75;;;2.85;;
65759;SDS011;52496;51.082;5.066;2023-08-31T05:16:50;9.20;;;2.90;;
65759;SDS011;52496;51.082;5.066;2023-08-31T05:19:20;9.45;;;3.58;;
65759;SDS011;52496;51.082;5.066;2023-08-31T05:21:51;5.68;;;3.13;;
65759;SDS011;52496;51.082;5.066;2023-08-31T05:24:21;5.40;;;2.83;;
65759;SDS011;52496;51.082;5.066;2023-08-31T05:26:52;4.05;;;2.55;;
65759;SDS011;52496;51.082;5.066;2023-08-31T05:29:22;4.63;;;2.63;;
65759;SDS011;52496;51.082;5.066;2023-08-31T05:31:53;3.83;;;2.47;;
65759;SDS011;52496;51.082;5.066;2023-08-31T05:34:24;5.47;;;3.10;;
65759;SDS011;52496;51.082;5.066;2023-08-31T05:36:58;5.50;;;2.85;;
65759;SDS011;52496;51.082;5.066;2023-08-31T05:39:29;12.32;;;2.88;;
65759;SDS011;52496;51.082;5.066;2023-08-31T05:41:59;5.57;;;3.08;;
65759;SDS011;52496;51.082;5.066;2023-08-31T05:44:30;7.88;;;2.83;;
65759;SDS011;52496;51.082;5.066;2023-08-31T05:47:00;6.53;;;3.70;;
65759;SDS011;52496;51.082;5.066;2023-08-31T05:49:30;6.65;;;3.47;;
65759;SDS011;52496;51.082;5.066;2023-08-31T05:52:01;6.68;;;3.53;;
65759;SDS011;52496;51.082;5.066;2023-08-31T05:54:32;5.90;;;3.45;;
65759;SDS011;52496;51.082;5.066;2023-08-31T05:57:02;7.47;;;3.90;;
65759;SDS011;52496;51.082;5.066;2023-08-31T05:59:33;6.07;;;3.38;;
65759;SDS011;52496;51.082;5.066;2023-08-31T06:02:05;7.60;;;3.40;;
65759;SDS011;52496;51.082;5.066;2023-08-31T06:04:38;7.53;;;4.00;;
65759;SDS011;52496;51.082;5.066;2023-08-31T06:07:08;7.22;;;3.70;;
65759;SDS011;52496;51.082;5.066;2023-08-31T06:09:39;9.07;;;4.15;;
65759;SDS011;52496;51.082;5.066;2023-08-31T06:12:09;7.22;;;3.53;;
65759;SDS011;52496;51.082;5.066;2023-08-31T06:14:40;6.47;;;3.80;;
65759;SDS011;52496;51.082;5.066;2023-08-31T06:17:10;7.20;;;3.70;;
65759;SDS011;52496;51.082;5.066;2023-08-31T06:19:43;21.67;;;4.55;;
65759;SDS011;52496;51.082;5.066;2023-08-31T06:22:13;12.07;;;4.60;;
65759;SDS011;52496;51.082;5.066;2023-08-31T06:24:44;8.07;;;4.00;;
65759;SDS011;52496;51.082;5.066;2023-08-31T06:27:15;10.20;;;3.65;;
65759;SDS011;52496;51.082;5.066;2023-08-31T06:29:47;8.68;;;3.80;;
65759;SDS011;52496;51.082;5.066;2023-08-31T06:32:18;8.27;;;3.70;;
65759;SDS011;52496;51.082;5.066;2023-08-31T06:34:48;14.48;;;3.70;;
65759;SDS011;52496;51.082;5.066;2023-08-31T06:37:19;7.28;;;3.00;;
65759;SDS011;52496;51.082;5.066;2023-08-31T06:39:50;10.32;;;4.30;;
65759;SDS011;52496;51.082;5.066;2023-08-31T06:42:21;8.25;;;3.63;;
65759;SDS011;52496;51.082;5.066;2023-08-31T06:44:52;5.90;;;3.00;;
65759;SDS011;52496;51.082;5.066;2023-08-31T06:47:23;8.93;;;3.78;;
65759;SDS011;52496;51.082;5.066;2023-08-31T06:49:53;5.47;;;2.88;;
65759;SDS011;52496;51.082;5.066;2023-08-31T06:52:24;7.72;;;3.53;;
65759;SDS011;52496;51.082;5.066;2023-08-31T06:54:55;7.38;;;2.88;;
65759;SDS011;52496;51.082;5.066;2023-08-31T06:57:27;8.45;;;3.15;;
65759;SDS011;52496;51.082;5.066;2023-08-31T06:59:57;12.77;;;3.42;;
65759;SDS011;52496;51.082;5.066;2023-08-31T07:02:28;5.93;;;3.25;;
65759;SDS011;52496;51.082;5.066;2023-08-31T07:04:59;7.05;;;3.13;;
65759;SDS011;52496;51.082;5.066;2023-08-31T07:07:30;8.75;;;2.83;;
65759;SDS011;52496;51.082;5.066;2023-08-31T07:10:00;7.80;;;3.58;;
65759;SDS011;52496;51.082;5.066;2023-08-31T07:12:31;9.93;;;3.10;;
65759;SDS011;52496;51.082;5.066;2023-08-31T07:15:01;9.70;;;4.18;;
65759;SDS011;52496;51.082;5.066;2023-08-31T07:17:33;7.93;;;2.50;;
65759;SDS011;52496;51.082;5.066;2023-08-31T07:20:04;7.53;;;2.92;;
65759;SDS011;52496;51.082;5.066;2023-08-31T07:22:39;6.50;;;2.70;;
65759;SDS011;52496;51.082;5.066;2023-08-31T07:25:10;9.00;;;3.55;;
65759;SDS011;52496;51.082;5.066;2023-08-31T07:27:42;11.43;;;3.00;;
65759;SDS011;52496;51.082;5.066;2023-08-31T07:30:12;5.18;;;2.70;;
65759;SDS011;52496;51.082;5.066;2023-08-31T07:32:43;7.15;;;2.58;;
65759;SDS011;52496;51.082;5.066;2023-08-31T07:35:14;8.27;;;2.47;;
65759;SDS011;52496;51.082;5.066;2023-08-31T07:37:44;6.60;;;2.70;;
65759;SDS011;52496;51.082;5.066;2023-08-31T07:40:15;14.63;;;3.78;;
65759;SDS011;52496;51.082;5.066;2023-08-31T07:42:45;5.40;;;2.50;;
65759;SDS011;52496;51.082;5.066;2023-08-31T07:45:18;10.45;;;3.00;;
65759;SDS011;52496;51.082;5.066;2023-08-31T07:47:48;7.60;;;2.80;;
65759;SDS011;52496;51.082;5.066;2023-08-31T07:50:19;5.43;;;2.65;;
65759;SDS011;52496;51.082;5.066;2023-08-31T07:52:50;5.47;;;2.70;;
65759;SDS011;52496;51.082;5.066;2023-08-31T07:55:20;6.65;;;2.78;;
65759;SDS011;52496;51.082;5.066;2023-08-31T07:57:50;9.63;;;2.78;;
65759;SDS011;52496;51.082;5.066;2023-08-31T08:00:21;6.50;;;2.78;;
65759;SDS011;52496;51.082;5.066;2023-08-31T08:02:52;11.63;;;3.28;;
65759;SDS011;52496;51.082;5.066;2023-08-31T08:05:22;6.07;;;3.13;;
65759;SDS011;52496;51.082;5.066;2023-08-31T08:07:53;6.65;;;2.63;;
65759;SDS011;52496;51.082;5.066;2023-08-31T08:10:23;4.93;;;2.25;;
65759;SDS011;52496;51.082;5.066;2023-08-31T08:12:54;4.65;;;2.50;;
65759;SDS011;52496;51.082;5.066;2023-08-31T08:15:26;10.02;;;3.33;;
65759;SDS011;52496;51.082;5.066;2023-08-31T08:17:56;5.80;;;2.50;;
65759;SDS011;52496;51.082;5.066;2023-08-31T08:20:27;9.75;;;2.60;;
65759;SDS011;52496;51.082;5.066;2023-08-31T08:22:58;4.32;;;2.28;;
65759;SDS011;52496;51.082;5.066;2023-08-31T08:25:30;7.28;;;2.78;;
65759;SDS011;52496;51.082;5.066;2023-08-31T08:28:00;4.90;;;2.30;;
65759;SDS011;52496;51.082;5.066;2023-08-31T08:30:31;12.85;;;3.38;;
65759;SDS011;52496;51.082;5.066;2023-08-31T08:33:01;5.45;;;2.70;;
65759;SDS011;52496;51.082;5.066;2023-08-31T08:35:32;11.45;;;2.75;;
65759;SDS011;52496;51.082;5.066;2023-08-31T08:38:03;5.07;;;2.97;;
65759;SDS011;52496;51.082;5.066;2023-08-31T08:40:35;6.43;;;2.45;;
65759;SDS011;52496;51.082;5.066;2023-08-31T08:43:05;5.50;;;2.40;;
65759;SDS011;52496;51.082;5.066;2023-08-31T08:45:39;5.75;;;2.58;;
65759;SDS011;52496;51.082;5.066;2023-08-31T08:48:11;6.28;;;2.15;;
65759;SDS011;52496;51.082;5.066;2023-08-31T08:50:42;6.82;;;2.17;;
65759;SDS011;52496;51.082;5.066;2023-08-31T08:53:13;6.25;;;2.63;;
65759;SDS011;52496;51.082;5.066;2023-08-31T08:55:45;5.38;;;2.95;;
65759;SDS011;52496;51.082;5.066;2023-08-31T08:58:15;4.80;;;2.60;;
65759;SDS011;52496;51.082;5.066;2023-08-31T09:00:46;5.93;;;2.35;;
65759;SDS011;52496;51.082;5.066;2023-08-31T09:03:18;5.35;;;2.47;;
65759;SDS011;52496;51.082;5.066;2023-08-31T09:05:48;4.88;;;2.17;;
65759;SDS011;52496;51.082;5.066;2023-08-31T09:08:26;6.15;;;2.30;;
65759;SDS011;52496;51.082;5.066;2023-08-31T09:10:57;6.70;;;2.50;;
65759;SDS011;52496;51.082;5.066;2023-08-31T09:13:29;10.52;;;3.30;;
65759;SDS011;52496;51.082;5.066;2023-08-31T09:16:00;8.27;;;2.97;;
65759;SDS011;52496;51.082;5.066;2023-08-31T09:18:31;6.85;;;2.47;;
65759;SDS011;52496;51.082;5.066;2023-08-31T09:21:02;3.90;;;2.22;;
65759;SDS011;52496;51.082;5.066;2023-08-31T09:23:33;4.72;;;2.30;;
65759;SDS011;52496;51.082;5.066;2023-08-31T09:26:04;12.27;;;3.40;;
65759;SDS011;52496;51.082;5.066;2023-08-31T09:28:35;6.60;;;2.30;;
65759;SDS011;52496;51.082;5.066;2023-08-31T09:31:10;6.47;;;2.47;;
65759;SDS011;52496;51.082;5.066;2023-08-31T09:33:51;8.35;;;2.67;;
65759;SDS011;52496;51.082;5.066;2023-08-31T09:36:21;8.35;;;2.72;;
65759;SDS011;52496;51.082;5.066;2023-08-31T09:38:56;6.57;;;2.88;;
65759;SDS011;52496;51.082;5.066;2023-08-31T09:41:27;7.47;;;2.28;;
65759;SDS011;52496;51.082;5.066;2023-08-31T09:44:20;5.00;;;2.72;;
65759;SDS011;52496;51.082;5.066;2023-08-31T09:46:50;4.75;;;2.17;;
65759;SDS011;52496;51.082;5.066;2023-08-31T09:49:21;4.13;;;2.55;;
65759;SDS011;52496;51.082;5.066;2023-08-31T09:51:54;4.88;;;2.58;;
65759;SDS011;52496;51.082;5.066;2023-08-31T09:54:25;5.35;;;2.15;;
65759;SDS011;52496;51.082;5.066;2023-08-31T09:56:59;5.45;;;2.45;;
65759;SDS011;52496;51.082;5.066;2023-08-31T09:59:32;6.78;;;2.30;;
65759;SDS011;52496;51.082;5.066;2023-08-31T10:02:04;4.80;;;2.40;;
65759;SDS011;52496;51.082;5.066;2023-08-31T10:04:35;8.38;;;2.50;;
65759;SDS011;52496;51.082;5.066;2023-08-31T10:07:07;10.05;;;2.78;;
65759;SDS011;52496;51.082;5.066;2023-08-31T10:09:39;10.55;;;2.70;;
65759;SDS011;52496;51.082;5.066;2023-08-31T10:12:10;6.65;;;2.60;;
65759;SDS011;52496;51.082;5.066;2023-08-31T10:14:41;7.75;;;2.33;;
65759;SDS011;52496;51.082;5.066;2023-08-31T10:17:16;8.30;;;2.35;;
65759;SDS011;52496;51.082;5.066;2023-08-31T10:19:47;4.97;;;2.33;;
65759;SDS011;52496;51.082;5.066;2023-08-31T10:22:18;7.50;;;2.70;;
65759;SDS011;52496;51.082;5.066;2023-08-31T10:25:01;4.40;;;1.98;;
65759;SDS011;52496;51.082;5.066;2023-08-31T10:27:37;3.58;;;2.10;;
65759;SDS011;52496;51.082;5.066;2023-08-31T10:30:13;5.03;;;2.70;;
65759;SDS011;52496;51.082;5.066;2023-08-31T10:35:48;6.65;;;2.35;;
65759;SDS011;52496;51.082;5.066;2023-08-31T10:38:30;6.18;;;2.38;;
65759;SDS011;52496;51.082;5.066;2023-08-31T10:41:02;8.90;;;2.70;;
65759;SDS011;52496;51.082;5.066;2023-08-31T10:43:46;7.60;;;3.13;;
65759;SDS011;52496;51.082;5.066;2023-08-31T10:46:35;8.25;;;2.95;;
65759;SDS011;52496;51.082;5.066;2023-08-31T10:49:12;7.32;;;2.70;;
65759;SDS011;52496;51.082;5.066;2023-08-31T10:51:45;5.78;;;2.15;;
65759;SDS011;52496;51.082;5.066;2023-08-31T10:54:30;6.40;;;2.30;;
65759;SDS011;52496;51.082;5.066;2023-08-31T10:57:02;4.72;;;2.10;;
65759;SDS011;52496;51.082;5.066;2023-08-31T11:00:08;10.57;;;2.65;;
65759;SDS011;52496;51.082;5.066;2023-08-31T11:07:38;5.75;;;2.20;;
65759;SDS011;52496;51.082;5.066;2023-08-31T11:10:11;3.05;;;2.10;;
65759;SDS011;52496;51.082;5.066;2023-08-31T11:12:54;5.78;;;2.97;;
65759;SDS011;52496;51.082;5.066;2023-08-31T11:15:26;5.57;;;2.15;;
65759;SDS011;52496;51.082;5.066;2023-08-31T11:18:00;4.30;;;1.95;;
65759;SDS011;52496;51.082;5.066;2023-08-31T11:20:30;7.30;;;2.70;;
65759;SDS011;52496;51.082;5.066;2023-08-31T11:23:01;6.63;;;2.30;;
65759;SDS011;52496;51.082;5.066;2023-08-31T11:25:33;5.18;;;1.60;;
65759;SDS011;52496;51.082;5.066;2023-08-31T11:28:05;4.45;;;2.17;;
65759;SDS011;52496;51.082;5.066;2023-08-31T11:30:37;7.93;;;2.00;;
65759;SDS011;52496;51.082;5.066;2023-08-31T11:33:08;5.88;;;1.85;;
65759;SDS011;52496;51.082;5.066;2023-08-31T11:35:41;5.22;;;1.90;;
65759;SDS011;52496;51.082;5.066;2023-08-31T11:38:14;2.10;;;1.48;;
65759;SDS011;52496;51.082;5.066;2023-08-31T11:40:46;6.50;;;2.00;;
65759;SDS011;52496;51.082;5.066;2023-08-31T11:43:17;4.30;;;1.80;;
65759;SDS011;52496;51.082;5.066;2023-08-31T11:45:49;3.92;;;1.85;;
65759;SDS011;52496;51.082;5.066;2023-08-31T11:48:21;3.35;;;1.60;;
65759;SDS011;52496;51.082;5.066;2023-08-31T11:50:52;7.13;;;2.05;;
65759;SDS011;52496;51.082;5.066;2023-08-31T11:53:23;4.40;;;1.95;;
65759;SDS011;52496;51.082;5.066;2023-08-31T11:55:54;4.20;;;1.58;;
65759;SDS011;52496;51.082;5.066;2023-08-31T11:58:25;4.20;;;1.80;;
65759;SDS011;52496;51.082;5.066;2023-08-31T12:00:57;4.88;;;1.98;;
65759;SDS011;52496;51.082;5.066;2023-08-31T12:03:39;6.90;;;1.90;;
65759;SDS011;52496;51.082;5.066;2023-08-31T12:06:17;3.47;;;1.55;;
65759;SDS011;52496;51.082;5.066;2023-08-31T12:08:51;5.28;;;2.00;;
65759;SDS011;52496;51.082;5.066;2023-08-31T12:11:25;4.43;;;1.90;;
65759;SDS011;52496;51.082;5.066;2023-08-31T12:13:59;4.20;;;1.95;;
65759;SDS011;52496;51.082;5.066;2023-08-31T12:16:34;8.27;;;3.10;;
65759;SDS011;52496;51.082;5.066;2023-08-31T12:19:05;3.28;;;1.90;;
65759;SDS011;52496;51.082;5.066;2023-08-31T12:21:38;3.83;;;1.70;;
65759;SDS011;52496;51.082;5.066;2023-08-31T12:24:09;8.15;;;1.83;;
65759;SDS011;52496;51.082;5.066;2023-08-31T12:26:40;4.05;;;1.83;;
65759;SDS011;52496;51.082;5.066;2023-08-31T12:29:10;4.80;;;2.15;;
65759;SDS011;52496;51.082;5.066;2023-08-31T12:31:41;3.67;;;2.30;;
65759;SDS011;52496;51.082;5.066;2023-08-31T12:34:13;5.93;;;2.33;;
65759;SDS011;52496;51.082;5.066;2023-08-31T12:36:44;6.35;;;2.53;;
65759;SDS011;52496;51.082;5.066;2023-08-31T12:39:14;3.60;;;1.90;;
65759;SDS011;52496;51.082;5.066;2023-08-31T12:41:45;3.53;;;1.92;;
65759;SDS011;52496;51.082;5.066;2023-08-31T12:44:15;5.93;;;2.20;;
65759;SDS011;52496;51.082;5.066;2023-08-31T12:46:46;7.13;;;2.30;;
65759;SDS011;52496;51.082;5.066;2023-08-31T12:49:16;6.00;;;2.22;;
65759;SDS011;52496;51.082;5.066;2023-08-31T12:51:47;6.57;;;2.17;;
65759;SDS011;52496;51.082;5.066;2023-08-31T12:54:18;3.95;;;2.20;;
65759;SDS011;52496;51.082;5.066;2023-08-31T12:56:49;4.38;;;1.85;;
65759;SDS011;52496;51.082;5.066;2023-08-31T12:59:19;4.25;;;1.77;;
65759;SDS011;52496;51.082;5.066;2023-08-31T13:01:50;4.15;;;1.90;;
65759;SDS011;52496;51.082;5.066;2023-08-31T13:04:20;8.00;;;2.25;;
65759;SDS011;52496;51.082;5.066;2023-08-31T13:06:51;4.00;;;2.10;;
65759;SDS011;52496;51.082;5.066;2023-08-31T13:09:21;3.28;;;1.75;;
65759;SDS011;52496;51.082;5.066;2023-08-31T13:11:52;3.83;;;2.25;;
65759;SDS011;52496;51.082;5.066;2023-08-31T13:14:22;5.97;;;1.75;;
65759;SDS011;52496;51.082;5.066;2023-08-31T13:16:53;4.57;;;1.83;;
65759;SDS011;52496;51.082;5.066;2023-08-31T13:19:23;5.10;;;1.95;;
65759;SDS011;52496;51.082;5.066;2023-08-31T13:21:54;3.55;;;1.80;;
65759;SDS011;52496;51.082;5.066;2023-08-31T13:24:24;5.80;;;2.03;;
65759;SDS011;52496;51.082;5.066;2023-08-31T13:26:56;3.47;;;1.83;;
65759;SDS011;52496;51.082;5.066;2023-08-31T13:29:27;3.70;;;1.65;;
65759;SDS011;52496;51.082;5.066;2023-08-31T13:31:58;3.92;;;1.80;;
65759;SDS011;52496;51.082;5.066;2023-08-31T13:34:28;4.18;;;2.05;;
65759;SDS011;52496;51.082;5.066;2023-08-31T13:36:59;4.40;;;2.00;;
65759;SDS011;52496;51.082;5.066;2023-08-31T13:39:30;4.65;;;2.25;;
65759;SDS011;52496;51.082;5.066;2023-08-31T13:42:01;7.00;;;2.20;;
65759;SDS011;52496;51.082;5.066;2023-08-31T13:44:33;7.22;;;2.65;;
65759;SDS011;52496;51.082;5.066;2023-08-31T13:47:05;6.22;;;2.20;;
65759;SDS011;52496;51.082;5.066;2023-08-31T13:49:36;6.97;;;2.40;;
65759;SDS011;52496;51.082;5.066;2023-08-31T13:52:06;4.22;;;1.90;;
65759;SDS011;52496;51.082;5.066;2023-08-31T13:54:39;5.30;;;2.00;;
65759;SDS011;52496;51.082;5.066;2023-08-31T13:57:09;4.90;;;2.05;;
65759;SDS011;52496;51.082;5.066;2023-08-31T13:59:40;9.13;;;1.90;;
65759;SDS011;52496;51.082;5.066;2023-08-31T14:02:11;4.88;;;2.10;;
65759;SDS011;52496;51.082;5.066;2023-08-31T14:04:41;3.88;;;1.83;;
65759;SDS011;52496;51.082;5.066;2023-08-31T14:07:12;7.30;;;1.90;;
65759;SDS011;52496;51.082;5.066;2023-08-31T14:09:43;4.35;;;2.00;;
65759;SDS011;52496;51.082;5.066;2023-08-31T14:12:14;3.92;;;2.00;;
65759;SDS011;52496;51.082;5.066;2023-08-31T14:14:44;5.68;;;1.85;;
65759;SDS011;52496;51.082;5.066;2023-08-31T14:17:16;3.92;;;1.80;;
65759;SDS011;52496;51.082;5.066;2023-08-31T14:19:46;4.53;;;2.05;;
65759;SDS011;52496;51.082;5.066;2023-08-31T14:22:17;6.75;;;1.63;;
65759;SDS011;52496;51.082;5.066;2023-08-31T14:24:47;5.03;;;2.08;;
65759;SDS011;52496;51.082;5.066;2023-08-31T14:27:18;4.05;;;1.92;;
65759;SDS011;52496;51.082;5.066;2023-08-31T14:29:48;6.43;;;2.55;;
65759;SDS011;52496;51.082;5.066;2023-08-31T14:32:19;5.82;;;2.00;;
65759;SDS011;52496;51.082;5.066;2023-08-31T14:34:49;6.93;;;1.90;;
65759;SDS011;52496;51.082;5.066;2023-08-31T14:37:21;2.25;;;1.40;;
65759;SDS011;52496;51.082;5.066;2023-08-31T14:39:51;2.35;;;1.50;;
65759;SDS011;52496;51.082;5.066;2023-08-31T14:42:22;2.70;;;1.52;;
65759;SDS011;52496;51.082;5.066;2023-08-31T14:44:52;3.95;;;2.15;;
65759;SDS011;52496;51.082;5.066;2023-08-31T14:47:23;3.97;;;1.50;;
65759;SDS011;52496;51.082;5.066;2023-08-31T14:49:54;6.47;;;2.17;;
65759;SDS011;52496;51.082;5.066;2023-08-31T14:52:25;3.95;;;1.50;;
65759;SDS011;52496;51.082;5.066;2023-08-31T14:54:55;3.40;;;1.70;;
65759;SDS011;52496;51.082;5.066;2023-08-31T14:57:26;4.07;;;1.70;;
65759;SDS011;52496;51.082;5.066;2023-08-31T14:59:57;2.72;;;1.48;;
65759;SDS011;52496;51.082;5.066;2023-08-31T15:02:28;3.42;;;1.63;;
65759;SDS011;52496;51.082;5.066;2023-08-31T15:04:59;3.80;;;1.67;;
65759;SDS011;52496;51.082;5.066;2023-08-31T15:07:30;4.15;;;1.70;;
65759;SDS011;52496;51.082;5.066;2023-08-31T15:10:00;3.90;;;1.52;;
65759;SDS011;52496;51.082;5.066;2023-08-31T15:12:31;2.88;;;1.63;;
65759;SDS011;52496;51.082;5.066;2023-08-31T15:15:04;2.42;;;1.42;;
65759;SDS011;52496;51.082;5.066;2023-08-31T15:17:35;3.55;;;1.55;;
65759;SDS011;52496;51.082;5.066;2023-08-31T15:20:06;4.63;;;1.80;;
65759;SDS011;52496;51.082;5.066;2023-08-31T15:22:39;4.07;;;1.80;;
65759;SDS011;52496;51.082;5.066;2023-08-31T15:25:09;1.88;;;1.27;;
65759;SDS011;52496;51.082;5.066;2023-08-31T15:27:40;6.07;;;1.98;;
65759;SDS011;52496;51.082;5.066;2023-08-31T15:30:10;4.60;;;1.70;;
65759;SDS011;52496;51.082;5.066;2023-08-31T15:32:41;2.70;;;1.58;;